createdAt,value
2022-09-30T00:01:15.597Z,11.90
2022-09-30T00:03:43.594Z,11.95
2022-09-30T00:06:11.099Z,11.95
2022-09-30T00:08:38.377Z,11.97
2022-09-30T00:11:08.307Z,11.85
2022-09-30T00:13:36.975Z,11.87
2022-09-30T00:16:04.624Z,11.91
2022-09-30T00:18:32.207Z,11.87
2022-09-30T00:20:59.660Z,11.90
2022-09-30T00:23:26.668Z,11.93
2022-09-30T00:25:58.921Z,11.96
2022-09-30T00:28:26.572Z,11.93
2022-09-30T00:30:54.994Z,11.90
2022-09-30T00:33:21.808Z,11.95
2022-09-30T00:35:48.707Z,12.04
2022-09-30T00:38:15.540Z,12.07
2022-09-30T00:40:43.032Z,12.06
2022-09-30T00:43:21.499Z,12.00
2022-09-30T00:45:58.925Z,12.05
2022-09-30T00:48:35.943Z,12.08
2022-09-30T00:51:03.561Z,12.04
2022-09-30T00:53:36.743Z,11.99
2022-09-30T00:56:14.286Z,12.08
2022-09-30T00:58:53.671Z,12.16
2022-09-30T01:01:21.190Z,12.20
2022-09-30T01:03:54.792Z,12.14
2022-09-30T01:06:23.290Z,12.17
2022-09-30T01:08:50.792Z,12.23
2022-09-30T01:11:17.840Z,12.24
2022-09-30T01:13:48.264Z,12.24
2022-09-30T01:16:17.693Z,12.27
2022-09-30T01:18:59.440Z,12.27
2022-09-30T01:21:53.680Z,12.24
2022-09-30T01:24:41.000Z,12.22
2022-09-30T01:27:31.050Z,12.23
2022-09-30T01:30:03.557Z,12.25
2022-09-30T01:32:53.482Z,12.22
2022-09-30T01:35:20.246Z,12.20
2022-09-30T01:38:26.119Z,12.26
2022-09-30T01:41:01.818Z,12.27
2022-09-30T01:43:45.465Z,12.23
2022-09-30T01:46:44.511Z,12.26
2022-09-30T01:49:20.518Z,12.29
2022-09-30T01:51:59.015Z,12.22
2022-09-30T01:54:46.855Z,12.31
2022-09-30T01:57:22.711Z,12.31
2022-09-30T02:00:00.721Z,12.34
2022-09-30T02:02:32.824Z,12.32
2022-09-30T02:05:12.494Z,12.34
2022-09-30T02:07:43.933Z,12.36
2022-09-30T02:10:25.832Z,12.38
2022-09-30T02:12:58.722Z,12.42
2022-09-30T02:15:31.247Z,12.41
2022-09-30T02:18:20.677Z,12.44
2022-09-30T02:20:54.616Z,12.45
2022-09-30T02:23:26.761Z,12.42
2022-09-30T02:26:05.930Z,12.34
2022-09-30T02:28:34.081Z,12.14
2022-09-30T02:31:03.414Z,12.06
2022-09-30T02:33:34.752Z,12.03
2022-09-30T02:36:21.216Z,11.99
2022-09-30T02:38:55.031Z,12.10
2022-09-30T02:41:26.494Z,12.14
2022-09-30T02:43:54.798Z,12.26
2022-09-30T02:46:57.249Z,12.35
2022-09-30T02:49:44.289Z,12.26
2022-09-30T02:52:30.324Z,12.28
2022-09-30T02:55:14.251Z,12.34
2022-09-30T02:57:47.220Z,12.43
2022-09-30T03:00:14.408Z,12.42
2022-09-30T03:02:41.908Z,12.50
2022-09-30T03:05:09.948Z,12.53
2022-09-30T03:07:37.036Z,12.57
2022-09-30T03:10:13.718Z,12.60
2022-09-30T03:13:00.710Z,12.62
2022-09-30T03:15:47.301Z,12.47
2022-09-30T03:18:39.025Z,12.44
2022-09-30T03:21:29.729Z,12.49
2022-09-30T03:24:14.938Z,12.37
2022-09-30T03:27:07.672Z,12.47
2022-09-30T03:29:39.416Z,12.56
2022-09-30T03:32:56.764Z,12.56
2022-09-30T03:36:02.560Z,12.44
2022-09-30T03:38:55.017Z,12.55
2022-09-30T03:41:33.747Z,12.46
2022-09-30T03:44:18.740Z,12.55
2022-09-30T03:46:51.807Z,12.43
2022-09-30T03:49:32.309Z,12.39
2022-09-30T03:51:59.946Z,12.50
2022-09-30T03:54:26.950Z,12.45
2022-09-30T03:56:54.291Z,12.52
2022-09-30T03:59:28.464Z,12.58
2022-09-30T04:01:57.024Z,12.59
2022-09-30T04:04:24.091Z,12.52
2022-09-30T04:06:51.064Z,12.57
2022-09-30T04:09:17.911Z,12.62
2022-09-30T04:11:44.843Z,12.66
2022-09-30T04:14:11.687Z,12.62
2022-09-30T04:16:38.748Z,12.71
2022-09-30T04:19:05.749Z,12.78
2022-09-30T04:21:32.588Z,12.79
2022-09-30T04:23:59.381Z,12.81
2022-09-30T04:26:26.204Z,12.85
2022-09-30T04:28:53.032Z,12.87
2022-09-30T04:31:21.475Z,12.88
2022-09-30T04:33:48.349Z,12.92
2022-09-30T04:36:15.242Z,12.95
2022-09-30T04:38:42.398Z,12.98
2022-09-30T04:41:16.275Z,12.98
2022-09-30T04:43:46.971Z,12.92
2022-09-30T04:46:18.507Z,12.92
2022-09-30T04:48:46.196Z,12.97
2022-09-30T04:51:18.804Z,13.00
2022-09-30T04:53:46.279Z,13.02
2022-09-30T04:56:13.523Z,12.99
2022-09-30T04:58:40.476Z,12.99
2022-09-30T05:01:13.045Z,13.06
2022-09-30T05:03:40.585Z,13.04
2022-09-30T05:06:08.100Z,13.04
2022-09-30T05:08:35.487Z,13.08
2022-09-30T05:11:09.559Z,13.11
2022-09-30T05:13:41.180Z,13.16
2022-09-30T05:16:08.736Z,13.17
2022-09-30T05:22:43.175Z,13.23
2022-09-30T05:25:10.428Z,13.22
2022-09-30T05:27:37.346Z,13.25
2022-09-30T05:30:04.575Z,13.28
2022-09-30T05:32:32.592Z,13.32
2022-09-30T05:34:59.424Z,13.35
2022-09-30T05:37:26.213Z,13.36
2022-09-30T05:39:53.000Z,13.40
2022-09-30T05:42:19.828Z,13.43
2022-09-30T05:44:46.646Z,13.45
2022-09-30T05:47:13.486Z,13.48
2022-09-30T05:49:41.754Z,13.51
2022-09-30T05:52:08.599Z,13.56
2022-09-30T05:54:35.369Z,13.61
2022-09-30T05:57:02.192Z,13.67
2022-09-30T05:59:28.949Z,13.74
2022-09-30T06:01:55.881Z,13.80
2022-09-30T06:04:22.771Z,13.84
2022-09-30T06:06:49.648Z,13.88
2022-09-30T06:09:18.256Z,13.88
2022-09-30T06:11:45.286Z,13.94
2022-09-30T06:14:12.096Z,13.98
2022-09-30T06:16:39.041Z,14.01
2022-09-30T06:19:06.826Z,14.01
2022-09-30T06:21:33.632Z,14.03
2022-09-30T06:24:00.712Z,14.02
2022-09-30T06:26:27.761Z,14.04
2022-09-30T06:28:54.808Z,14.01
2022-09-30T06:31:21.701Z,14.00
2022-09-30T06:33:48.593Z,14.01
2022-09-30T06:36:15.468Z,14.01
2022-09-30T06:38:42.268Z,14.03
2022-09-30T06:41:09.781Z,14.05
2022-09-30T06:43:41.854Z,14.04
2022-09-30T06:46:17.770Z,14.03
2022-09-30T06:48:48.951Z,14.06
2022-09-30T06:51:15.793Z,14.09
2022-09-30T06:53:43.282Z,14.09
2022-09-30T06:56:10.061Z,14.08
2022-09-30T06:58:36.872Z,13.97
2022-09-30T07:01:05.636Z,14.00
2022-09-30T07:03:34.410Z,13.97
2022-09-30T07:06:03.073Z,14.01
2022-09-30T07:08:34.218Z,14.01
2022-09-30T07:11:04.519Z,14.01
2022-09-30T07:13:33.183Z,14.00
2022-09-30T07:16:00.188Z,13.95
2022-09-30T07:18:28.082Z,14.00
2022-09-30T07:20:56.113Z,14.01
2022-09-30T07:23:26.697Z,14.02
2022-09-30T07:25:56.905Z,14.02
2022-09-30T07:28:31.337Z,13.91
2022-09-30T07:31:27.604Z,13.99
2022-09-30T07:33:47.755Z,13.99
2022-09-30T07:36:18.689Z,13.98
2022-09-30T07:38:50.539Z,13.97
2022-09-30T07:41:22.167Z,14.05
2022-09-30T07:43:49.070Z,14.03
2022-09-30T07:46:20.399Z,14.12
2022-09-30T07:48:52.281Z,14.09
2022-09-30T07:51:24.949Z,14.12
2022-09-30T07:53:58.095Z,14.18
2022-09-30T07:56:26.051Z,14.20
2022-09-30T07:59:00.806Z,14.24
2022-09-30T08:01:31.451Z,14.24
2022-09-30T08:04:01.672Z,14.25
2022-09-30T08:06:30.668Z,14.30
2022-09-30T08:08:58.281Z,14.32
2022-09-30T08:11:25.841Z,14.36
2022-09-30T08:13:56.824Z,14.32
2022-09-30T08:16:25.295Z,14.38
2022-09-30T08:18:57.307Z,14.43
2022-09-30T08:21:24.284Z,14.37
2022-09-30T08:23:51.117Z,14.44
2022-09-30T08:26:18.144Z,14.53
2022-09-30T08:28:48.193Z,14.42
2022-09-30T08:31:17.387Z,14.57
2022-09-30T08:33:44.694Z,14.59
2022-09-30T08:36:20.933Z,14.54
2022-09-30T08:38:47.698Z,14.68
2022-09-30T08:41:17.226Z,14.71
2022-09-30T08:43:53.248Z,14.81
2022-09-30T08:46:58.564Z,14.89
2022-09-30T08:49:34.563Z,14.99
2022-09-30T08:52:03.172Z,15.06
2022-09-30T08:54:34.559Z,15.09
2022-09-30T08:57:05.859Z,15.21
2022-09-30T08:59:38.921Z,15.29
2022-09-30T09:02:28.026Z,15.33
2022-09-30T09:04:58.933Z,15.39
2022-09-30T09:07:54.203Z,15.38
2022-09-30T09:10:51.145Z,15.44
2022-09-30T09:14:05.845Z,15.53
2022-09-30T09:16:32.606Z,15.54
2022-09-30T09:19:10.736Z,15.52
2022-09-30T09:22:00.662Z,15.57
2022-09-30T09:24:30.563Z,15.66
2022-09-30T09:26:59.066Z,15.61
2022-09-30T09:29:28.184Z,15.56
2022-09-30T09:31:55.238Z,15.50
2022-09-30T09:34:24.339Z,15.43
2022-09-30T09:37:43.058Z,15.35
2022-09-30T09:40:24.051Z,15.44
2022-09-30T09:43:02.703Z,15.46
2022-09-30T09:45:43.125Z,15.50
2022-09-30T09:48:12.772Z,15.52
2022-09-30T09:50:58.087Z,15.51
2022-09-30T09:53:43.051Z,15.50
2022-09-30T09:56:21.576Z,15.49
2022-09-30T09:59:14.076Z,15.41
2022-09-30T10:01:47.242Z,15.50
2022-09-30T10:04:24.205Z,15.55
2022-09-30T10:07:00.105Z,15.56
2022-09-30T10:09:37.115Z,15.64
2022-09-30T10:12:06.899Z,15.74
2022-09-30T10:14:48.399Z,15.81
2022-09-30T10:17:29.412Z,15.96
2022-09-30T10:20:29.302Z,16.09
2022-09-30T10:23:09.656Z,16.18
2022-09-30T10:25:36.912Z,16.23
2022-09-30T10:28:20.428Z,16.23
2022-09-30T10:30:53.481Z,16.38
2022-09-30T10:33:45.119Z,16.44
2022-09-30T10:36:20.177Z,16.36
2022-09-30T10:39:08.057Z,16.47
2022-09-30T10:41:36.480Z,16.45
2022-09-30T10:44:06.644Z,16.46
2022-09-30T10:46:39.684Z,16.58
2022-09-30T10:49:12.099Z,16.69
2022-09-30T10:51:39.255Z,16.74
2022-09-30T10:54:06.937Z,16.79
2022-09-30T10:56:43.771Z,16.78
2022-09-30T10:59:20.135Z,16.67
2022-09-30T11:01:53.874Z,16.72
2022-09-30T11:04:38.285Z,16.69
2022-09-30T11:07:20.683Z,16.50
2022-09-30T11:09:54.824Z,16.57
2022-09-30T11:12:40.841Z,16.71
2022-09-30T11:15:20.020Z,16.51
2022-09-30T11:18:01.638Z,16.90
2022-09-30T11:20:35.740Z,16.91
2022-09-30T11:23:35.089Z,16.89
2022-09-30T11:26:17.499Z,17.00
2022-09-30T11:29:19.626Z,17.08
2022-09-30T11:31:52.221Z,17.32
2022-09-30T11:34:40.899Z,17.27
2022-09-30T11:37:32.211Z,17.36
2022-09-30T11:40:43.271Z,17.37
2022-09-30T11:43:19.428Z,17.22
2022-09-30T11:45:55.810Z,17.09
2022-09-30T11:48:40.940Z,17.12
2022-09-30T11:51:29.344Z,17.10
2022-09-30T11:54:16.592Z,16.95
2022-09-30T11:57:05.898Z,16.91
2022-09-30T11:59:42.292Z,16.87
2022-09-30T12:02:40.142Z,16.83
2022-09-30T12:05:20.782Z,16.80
2022-09-30T12:07:52.774Z,16.95
2022-09-30T12:10:33.440Z,17.15
2022-09-30T12:13:06.764Z,17.32
2022-09-30T12:15:34.431Z,17.43
2022-09-30T12:18:04.914Z,17.79
2022-09-30T12:20:41.820Z,17.89
2022-09-30T12:23:16.972Z,17.77
2022-09-30T12:25:57.047Z,17.92
2022-09-30T12:28:45.377Z,18.25
2022-09-30T12:31:17.956Z,18.32
2022-09-30T12:34:00.447Z,18.53
2022-09-30T12:36:33.066Z,18.56
2022-09-30T12:39:06.080Z,18.63
2022-09-30T12:41:43.099Z,18.49
2022-09-30T12:44:39.234Z,18.90
2022-09-30T12:47:24.734Z,19.23
2022-09-30T12:49:54.641Z,19.38
2022-09-30T12:52:21.792Z,19.52
2022-09-30T12:55:01.370Z,19.36
2022-09-30T12:57:33.805Z,19.23
2022-09-30T13:00:15.873Z,19.19
2022-09-30T13:02:46.493Z,19.25
2022-09-30T13:05:39.166Z,19.04
2022-09-30T13:08:06.042Z,18.94
2022-09-30T13:10:38.598Z,18.60
2022-09-30T13:13:11.478Z,18.77
2022-09-30T13:15:43.514Z,18.54
2022-09-30T13:18:19.818Z,18.37
2022-09-30T13:20:56.667Z,18.55
2022-09-30T13:23:40.554Z,18.41
2022-09-30T13:26:22.983Z,18.19
2022-09-30T13:28:55.533Z,18.33
2022-09-30T13:31:23.797Z,18.12
2022-09-30T13:34:02.764Z,18.16
2022-09-30T13:36:33.607Z,18.20
2022-09-30T13:39:30.212Z,18.08
2022-09-30T13:42:29.790Z,18.26
2022-09-30T13:45:03.711Z,18.14
2022-09-30T13:47:58.854Z,18.06
2022-09-30T13:50:28.359Z,18.02
2022-09-30T13:53:02.723Z,17.56
2022-09-30T13:55:36.318Z,17.79
2022-09-30T13:58:32.064Z,17.57
2022-09-30T14:01:10.203Z,17.65
2022-09-30T14:04:23.378Z,17.75
2022-09-30T14:06:59.348Z,17.65
2022-09-30T14:09:52.199Z,17.25
2022-09-30T14:12:37.709Z,17.42
2022-09-30T14:15:19.653Z,17.51
2022-09-30T14:18:22.343Z,17.57
2022-09-30T14:21:15.854Z,17.17
2022-09-30T14:23:42.828Z,17.28
2022-09-30T14:26:44.041Z,17.44
2022-09-30T14:29:35.255Z,17.24
2022-09-30T14:32:11.079Z,17.55
2022-09-30T14:34:38.044Z,17.08
2022-09-30T14:37:05.287Z,17.22
2022-09-30T14:39:32.601Z,17.16
2022-09-30T14:42:01.978Z,17.07
2022-09-30T14:44:33.879Z,16.96
2022-09-30T14:47:02.834Z,16.90
2022-09-30T14:49:36.132Z,16.61
2022-09-30T14:52:04.076Z,16.52
2022-09-30T14:54:32.867Z,16.60
2022-09-30T14:57:02.358Z,16.54
2022-09-30T14:59:34.694Z,16.46
2022-09-30T15:02:04.151Z,16.39
2022-09-30T15:04:33.786Z,16.18
2022-09-30T15:07:03.552Z,16.41
2022-09-30T15:09:33.703Z,16.56
2022-09-30T15:12:05.182Z,16.45
2022-09-30T15:14:34.983Z,16.33
2022-09-30T15:17:05.972Z,16.26
2022-09-30T15:19:34.993Z,16.16
2022-09-30T15:22:04.009Z,16.19
2022-09-30T15:24:32.753Z,15.95
2022-09-30T15:27:01.425Z,15.97
2022-09-30T15:29:28.529Z,15.96
2022-09-30T15:32:04.328Z,15.85
2022-09-30T15:34:31.718Z,15.71
2022-09-30T15:37:11.771Z,15.80
2022-09-30T15:40:05.213Z,15.61
2022-09-30T15:43:02.835Z,15.49
2022-09-30T15:45:43.331Z,15.46
2022-09-30T15:48:13.170Z,15.18
2022-09-30T15:50:49.367Z,15.18
2022-09-30T15:53:24.220Z,15.29
2022-09-30T15:55:59.930Z,15.24
2022-09-30T15:58:27.159Z,15.31
2022-09-30T16:01:09.556Z,15.14
2022-09-30T16:03:37.195Z,15.11
2022-09-30T16:06:11.097Z,15.05
2022-09-30T16:08:50.047Z,14.98
2022-09-30T16:11:20.521Z,14.99
2022-09-30T16:13:48.171Z,14.92
2022-09-30T16:16:20.576Z,14.91
2022-09-30T16:18:48.316Z,14.86
2022-09-30T16:21:40.581Z,14.75
2022-09-30T16:24:27.406Z,14.69
2022-09-30T16:26:55.848Z,14.67
2022-09-30T16:29:25.753Z,14.71
2022-09-30T16:31:55.141Z,14.74
2022-09-30T16:34:29.570Z,14.74
2022-09-30T16:37:11.388Z,14.72
2022-09-30T16:39:38.568Z,14.67
2022-09-30T16:42:05.391Z,14.59
2022-09-30T16:44:35.651Z,14.56
2022-09-30T16:47:02.848Z,14.45
2022-09-30T16:49:29.789Z,14.29
2022-09-30T16:51:56.678Z,14.36
2022-09-30T16:54:23.523Z,14.38
2022-09-30T16:56:50.384Z,14.13
2022-09-30T16:59:18.426Z,14.16
2022-09-30T17:01:45.316Z,14.22
2022-09-30T17:04:15.218Z,14.24
2022-09-30T17:06:44.136Z,14.23
2022-09-30T17:09:11.038Z,14.20
2022-09-30T17:11:38.310Z,14.19
2022-09-30T17:14:05.734Z,14.16
2022-09-30T17:16:33.419Z,14.01
2022-09-30T17:19:00.534Z,14.01
2022-09-30T17:21:27.927Z,13.94
2022-09-30T17:23:55.237Z,13.85
2022-09-30T17:26:22.405Z,13.98
2022-09-30T17:28:49.334Z,14.02
2022-09-30T17:31:16.234Z,14.03
2022-09-30T17:33:43.077Z,14.03
2022-09-30T17:36:12.152Z,14.05
2022-09-30T17:38:39.579Z,13.92
2022-09-30T17:41:25.902Z,13.98
2022-09-30T17:43:52.751Z,13.74
2022-09-30T17:46:23.203Z,13.66
2022-09-30T17:48:54.232Z,13.59
2022-09-30T17:51:21.066Z,13.73
2022-09-30T17:53:49.231Z,13.66
2022-09-30T17:56:20.114Z,13.68
2022-09-30T17:58:50.513Z,13.69
2022-09-30T18:01:20.494Z,13.70
2022-09-30T18:03:47.700Z,13.57
2022-09-30T18:06:14.616Z,13.58
2022-09-30T18:08:42.713Z,13.61
2022-09-30T18:11:10.062Z,13.61
2022-09-30T18:13:36.926Z,13.57
2022-09-30T18:16:07.128Z,13.54
2022-09-30T18:18:34.741Z,13.49
2022-09-30T18:21:01.951Z,13.45
2022-09-30T18:23:28.743Z,13.38
2022-09-30T18:25:56.162Z,13.32
2022-09-30T18:28:23.119Z,13.26
2022-09-30T18:30:49.992Z,13.24
2022-09-30T18:33:17.485Z,13.21
2022-09-30T18:35:44.413Z,13.17
2022-09-30T18:38:13.408Z,13.13
2022-09-30T18:40:42.191Z,13.10
2022-09-30T18:43:13.309Z,13.06
2022-09-30T18:45:40.526Z,13.01
2022-09-30T18:48:08.405Z,12.99
2022-09-30T18:50:35.459Z,12.91
2022-09-30T18:53:09.448Z,12.76
2022-09-30T18:55:39.290Z,12.77
2022-09-30T18:58:06.172Z,12.75
2022-09-30T19:00:33.239Z,12.71
2022-09-30T19:03:00.251Z,12.73
2022-09-30T19:05:27.947Z,12.73
2022-09-30T19:07:55.905Z,12.70
2022-09-30T19:10:24.400Z,12.68
2022-09-30T19:12:52.179Z,12.80
2022-09-30T19:15:19.291Z,12.83
2022-09-30T19:17:46.607Z,12.84
2022-09-30T19:20:15.416Z,12.81
2022-09-30T19:22:42.315Z,12.83
2022-09-30T19:25:11.691Z,12.89
2022-09-30T19:27:40.969Z,12.86
2022-09-30T19:30:11.279Z,12.92
2022-09-30T19:32:38.336Z,12.95
2022-09-30T19:35:10.328Z,12.98
2022-09-30T19:37:38.355Z,13.03
2022-09-30T19:40:16.726Z,13.01
2022-09-30T19:42:48.271Z,12.98
2022-09-30T19:45:23.438Z,12.95
2022-09-30T19:47:51.712Z,12.95
2022-09-30T19:50:18.908Z,12.94
2022-09-30T19:52:55.904Z,12.96
2022-09-30T19:55:24.461Z,12.98
2022-09-30T19:57:51.655Z,12.98
2022-09-30T20:00:18.839Z,12.96
2022-09-30T20:02:45.667Z,12.98
2022-09-30T20:05:12.544Z,12.97
2022-09-30T20:07:39.762Z,12.96
2022-09-30T20:10:06.840Z,12.94
2022-09-30T20:12:33.691Z,12.93
2022-09-30T20:15:19.196Z,12.70
2022-09-30T20:17:45.949Z,12.68
2022-09-30T20:20:31.492Z,12.72
2022-09-30T20:23:00.736Z,12.76
2022-09-30T20:25:28.073Z,12.78
2022-09-30T20:27:54.955Z,12.72
2022-09-30T20:30:21.844Z,12.69
2022-09-30T20:32:48.651Z,12.65
2022-09-30T20:35:15.451Z,12.69
2022-09-30T20:37:42.544Z,12.72
2022-09-30T20:40:09.744Z,12.78
2022-09-30T20:42:38.477Z,12.85
2022-09-30T20:45:10.704Z,12.91
2022-09-30T20:47:39.751Z,12.87
2022-09-30T20:50:07.204Z,12.72
2022-09-30T20:52:34.180Z,12.67
2022-09-30T20:55:01.011Z,12.65
2022-09-30T20:57:31.511Z,12.75
2022-09-30T20:59:59.951Z,12.72
2022-09-30T21:02:28.163Z,12.72
2022-09-30T21:04:57.605Z,12.68
2022-09-30T21:07:25.382Z,12.76
2022-09-30T21:09:52.652Z,12.83
2022-09-30T21:12:19.717Z,12.90
2022-09-30T21:14:46.701Z,12.96
2022-09-30T21:17:13.625Z,12.92
2022-09-30T21:19:40.479Z,13.04
2022-09-30T21:22:07.305Z,12.98
2022-09-30T21:24:34.196Z,12.94
2022-09-30T21:27:01.700Z,12.92
2022-09-30T21:29:30.628Z,12.75
2022-09-30T21:31:57.730Z,12.80
2022-09-30T21:34:31.283Z,12.88
2022-09-30T21:36:58.114Z,12.93
2022-09-30T21:39:24.896Z,12.98
2022-09-30T21:41:51.685Z,12.97
2022-09-30T21:44:18.522Z,12.93
2022-09-30T21:46:48.687Z,12.96
2022-09-30T21:49:19.079Z,13.00
2022-09-30T21:51:46.106Z,13.04
2022-09-30T21:54:13.678Z,13.06
2022-09-30T21:56:42.241Z,13.10
2022-09-30T21:59:09.985Z,13.11
2022-09-30T22:01:37.443Z,13.12
2022-09-30T22:04:05.365Z,13.12
2022-09-30T22:06:32.143Z,13.15
2022-09-30T22:09:01.766Z,13.15
2022-09-30T22:11:30.327Z,13.14
2022-09-30T22:13:58.253Z,13.09
2022-09-30T22:16:29.519Z,13.06
2022-09-30T22:19:01.634Z,13.03
2022-09-30T22:21:31.903Z,13.02
2022-09-30T22:24:01.467Z,13.04
2022-09-30T22:26:29.175Z,12.98
2022-09-30T22:29:15.609Z,12.92
2022-09-30T22:31:42.567Z,12.75
2022-09-30T22:34:31.680Z,12.86
2022-09-30T22:37:17.485Z,12.70
2022-09-30T22:39:44.265Z,12.82
2022-09-30T22:42:11.085Z,12.88
2022-09-30T22:44:38.020Z,12.96
2022-09-30T22:47:05.535Z,13.01
2022-09-30T22:49:32.976Z,12.94
2022-09-30T22:52:00.973Z,12.97
2022-09-30T22:54:29.134Z,12.71
2022-09-30T22:56:58.360Z,12.66
2022-09-30T22:59:25.618Z,12.87
2022-09-30T23:01:52.505Z,12.92
2022-09-30T23:04:20.262Z,12.96
2022-09-30T23:06:50.816Z,13.00
2022-09-30T23:09:18.281Z,13.03
2022-09-30T23:11:48.404Z,12.88
2022-09-30T23:14:16.467Z,12.97
2022-09-30T23:16:43.303Z,13.04
2022-09-30T23:19:10.365Z,13.09
2022-09-30T23:21:37.407Z,13.10
2022-09-30T23:24:04.627Z,13.10
2022-09-30T23:26:31.610Z,13.13
2022-09-30T23:29:03.562Z,13.15
2022-09-30T23:31:30.675Z,13.15
2022-09-30T23:34:00.423Z,13.15
2022-09-30T23:36:30.080Z,13.14
2022-09-30T23:39:04.435Z,13.16
2022-09-30T23:41:32.496Z,13.05
2022-09-30T23:43:59.744Z,13.07
2022-09-30T23:46:26.604Z,13.12
2022-09-30T23:48:53.494Z,13.12
2022-09-30T23:51:20.383Z,13.09
2022-09-30T23:53:47.280Z,13.02
2022-09-30T23:56:16.836Z,13.05
2022-09-30T23:58:44.745Z,13.05
